Flight Track Log - Related Links

Times and Time Zones

All times are in EDT time to prevent confusion due to time zone crossing. See the KAP550 flight status page for this flight to view local times or setup timezone preferences in your user account.


Time Position Orientation Groundspeed Altitude Reporting Facility
EDT Latitude Longitude Course Direction KTS MPH feet Rate Location/Type
Wed 07:22:27 AM 44.4408 -74.6208 160° South 150 173 5,400  Level Boston Center
Wed 07:23:27 AM 44.3994 -74.5989 159° South 150 173 5,500 50 Climbing Boston Center
Wed 07:24:27 AM 44.3581 -74.5772 159° South 150 173 5,500  Level Boston Center
Wed 07:25:27 AM 44.3147 -74.5581 162° South 150 173 5,500  Level Boston Center
Wed 07:26:27 AM 44.2714 -74.5392 163° South 156 180 5,500  Level Boston Center
Wed 07:27:00 AM 44.7124 -74.7312 160° South  Level FlightAware Approximate
Wed 07:27:27 AM 44.2300 -74.5144 157° South 156 180 5,500  Level Boston Center
Wed 07:28:27 AM 44.1889 -74.4958 162° South 162 186 5,500 91 Level Boston Center
Wed 07:29:39 AM 44.1475 -74.4800 165° South 162 186 5,700 45 Climbing Boston Center
Wed 07:30:39 AM 44.0958 -74.4519 159° South 167 192 5,600 -50 Descending Boston Center
Wed 07:31:39 AM 44.0544 -74.4333 162° South 162 186 5,600  Level Boston Center
Wed 07:32:39 AM 44.0214 -74.4150 158° South 162 186 5,600  Level Boston Center
Wed 07:33:39 AM 43.9717 -74.3903 160° South 162 186 5,600  Level Boston Center
Wed 07:34:39 AM 43.9306 -74.3717 162° South 162 186 5,600  Level Boston Center
Wed 07:35:39 AM 43.8892 -74.3531 162° South 162 186 5,600  Level Boston Center
Wed 07:36:51 AM 43.8497 -74.3317 159° South 162 186 5,600  Level Boston Center
Wed 07:37:51 AM 43.8003 -74.3069 160° South 162 186 5,600 200 Level Boston Center
Wed 07:38:51 AM 43.7608 -74.2886 161° South 156 180 6,000 300 Climbing Boston Center
Wed 07:39:51 AM 43.7258 -74.2703 159° South 156 180 6,200 300 Climbing Boston Center
Wed 07:40:51 AM 43.6886 -74.2519 160° South 145 167 6,600 300 Climbing Boston Center
Wed 07:41:51 AM 43.6514 -74.2364 163° South 145 167 6,800 250 Climbing Boston Center
Wed 07:42:51 AM 43.6142 -74.2181 160° South 150 173 7,100 250 Climbing Boston Center
Wed 07:43:51 AM 43.5747 -74.1997 161° South 150 173 7,300 250 Climbing Boston Center
Wed 07:44:51 AM 43.5375 -74.1786 158° South 150 173 7,600 196 Climbing Boston Center
Wed 07:45:23 AM 43.5169 -74.1722 167° South 146 168 7,600  Level Boston Center
Wed 07:45:51 AM 43.4983 -74.1631 160° South 145 167 7,600  Level Boston Center
Wed 07:46:12 AM 43.4794 -74.1597 173° South 153 176 7,600  Level Boston Center
Wed 07:46:51 AM 43.4589 -74.1419 148° Southeast 150 173 7,600  Level Boston Center
Wed 07:47:06 AM 43.4422 -74.1386 172° South 155 178 7,600  Level Boston Center
Wed 07:47:51 AM 43.4175 -74.1236 156° South 150 173 7,600  Level Boston Center
Wed 07:48:07 AM 43.4031 -74.1147 156° South 156 180 7,600  Level Boston Center
Wed 07:48:51 AM 43.3719 -74.0994 160° South 150 173 7,600  Level Boston Center
Wed 07:49:07 AM 43.3617 -74.0992 179° South 155 178 7,600  Level Boston Center
Wed 07:49:51 AM 43.3306 -74.0814 157° South 150 173 7,600  Level Boston Center
Wed 07:50:08 AM 43.3222 -74.0811 179° South 153 176 7,600  Level Boston Center
Wed 07:50:51 AM 43.2933 -74.0631 156° South 150 173 7,600  Level Boston Center
Wed 07:51:09 AM 43.2831 -74.0600 168° South 152 175 7,600  Level Boston Center
Wed 07:51:51 AM 43.2519 -74.0422 157° South 150 173 7,600  Level Boston Center
Wed 07:52:09 AM 43.2417 -74.0419 179° South 154 177 7,600  Level Boston Center
Wed 07:52:51 AM 43.2106 -74.0211 154° Southeast 150 173 7,600 -197 Level Boston Center
Wed 07:53:10 AM 43.1981 -74.0181 170° South 159 183 7,400 -700 Descending Boston Center
Wed 07:53:51 AM 43.1650 -74.0000 158° South 168 193 6,900 -600 Descending Boston Center
Wed 07:54:10 AM 43.1506 -73.9939 163° South 182 209 6,800 -400 Descending Boston Center
Wed 07:54:51 AM 43.1194 -73.9703 151° Southeast 173 199 6,500 -492 Descending Boston Center
Wed 07:55:11 AM 43.1050 -73.9614 156° South 186 214 6,300 -500 Descending Boston Center
Wed 07:55:51 AM 43.0764 -73.9353 146° Southeast 173 199 6,000 -492 Descending Boston Center
Wed 07:56:12 AM 43.0617 -73.9292 163° South 181 208 5,800 -500 Descending Boston Center
Wed 07:56:51 AM 43.0308 -73.9028 148° Southeast 178 205 5,500 -500 Descending Boston Center
Wed 07:57:12 AM 43.0164 -73.8939 156° South 181 208 5,300 -500 Descending Boston Center
Wed 07:57:51 AM 42.9875 -73.8733 153° Southeast 178 205 5,000 -537 Descending Boston Center
Wed 07:58:19 AM 42.9689 -73.8617 155° Southeast 181 208 4,700 -700 Descending Boston Center
Wed 07:58:51 AM 42.9419 -73.8411 151° Southeast 183 211 4,300 -1,180 Descending Boston Center
Wed 07:59:20 AM 42.9214 -73.8267 153° Southeast 187 215 3,500 -1,400 Descending Boston Center
Wed 07:59:51 AM 42.8944 -73.8117 158° South 183 211 2,900 -900 Descending Boston Center
Wed 08:00:20 AM 42.8672 -73.8139 183° South 187 215 2,600 -867 Descending Boston Center
Wed 08:01:21 AM 42.8236 -73.8131 179° South 161 185 1,600 -843 Descending Boston Center
Wed 08:02:21 AM 42.7839 -73.8064 173° South 128 147 900 -700 Descending Boston Center
Wed 08:04:00 AM 42.7491 -73.8020 170° South  Level Estimated
Wed 08:11:00 AM 42.7491 -73.8020 170° South  Level Estimated
Wed 08:12:00 AM 42.7491 -73.8020 170° South  Level Estimated
Wed 08:13:00 AM 42.7491 -73.8020 170° South  Level Estimated
Wed 08:14:00 AM 42.7491 -73.8020 170° South  Level Estimated

Login

Don't have an account? Register now (free) for customized features, flight alerts, and more!